Time;durP1;ratioP1;P1;durP2;ratioP2;P2;SDS_P1;SDS_P2;PMS_P1;PMS_P2;Temp;Humidity;BMP_temperature;BMP_pressure;BME280_temperature;BME280_humidity;BME280_pressure;Samples;Min_cycle;Max_cycle;Signal;HPM_P1;HPM_P2
2022/02/10 00:08:18;;;;;;;18.07;6.90;;;8.40;1.00;;;;;;5053881;28;20559;-73
2022/02/10 00:17:01;;;;;;;12.87;4.50;;;8.20;1.00;;;;;;5053090;28;20264;-73
2022/02/10 00:19:42;;;;;;;7.97;3.93;;;8.10;1.00;;;;;;5053290;28;20202;-73
2022/02/10 00:22:16;;;;;;;7.33;3.97;;;8.00;1.00;;;;;;5053223;28;20210;-74
2022/02/10 00:25:27;;;;;;;9.53;4.30;;;8.10;1.00;;;;;;5053337;28;20245;-73
2022/02/10 00:36:13;;;;;;;15.43;5.10;;;7.90;1.00;;;;;;5052933;28;20272;-72
2022/02/10 00:38:49;;;;;;;8.60;4.67;;;7.70;1.00;;;;;;5053103;28;20214;-73
2022/02/10 00:41:16;;;;;;;9.50;4.83;;;7.60;1.00;;;;;;5052595;28;20579;-73
2022/02/10 00:43:43;;;;;;;15.77;4.67;;;7.50;1.00;;;;;;5052872;28;20701;-72
2022/02/10 00:46:10;;;;;;;12.37;4.73;;;7.60;1.00;;;;;;5052731;28;20215;-73
2022/02/10 00:48:37;;;;;;;12.87;4.83;;;7.40;1.00;;;;;;5053153;28;20207;-72
2022/02/10 00:51:06;;;;;;;9.37;5.17;;;7.30;1.00;;;;;;5052509;28;20203;-72
2022/02/10 00:53:37;;;;;;;8.53;4.77;;;7.40;1.00;;;;;;5052617;28;20203;-73
2022/02/10 00:56:08;;;;;;;12.87;6.50;;;7.60;1.00;;;;;;5052253;28;20203;-72
2022/02/10 00:58:39;;;;;;;8.10;4.60;;;7.60;1.00;;;;;;5052640;28;20238;-74
2022/02/10 01:31:13;;;;;;;9.07;4.03;;;7.60;1.00;;;;;;5052013;28;20674;-75
2022/02/10 01:33:42;;;;;;;14.53;4.50;;;7.60;1.00;;;;;;5052172;28;20215;-74
2022/02/10 01:36:09;;;;;;;13.00;5.27;;;7.60;1.00;;;;;;5052163;28;20307;-70
2022/02/10 01:38:36;;;;;;;12.20;4.17;;;7.60;1.00;;;;;;5052209;28;20198;-71
2022/02/10 01:41:50;;;;;;;8.00;3.97;;;7.50;1.00;;;;;;5051806;28;20246;-70
2022/02/10 01:58:09;;;;;;;11.37;4.80;;;7.30;1.00;;;;;;5051970;28;20198;-74
2022/02/10 02:03:26;;;;;;;12.50;5.30;;;7.20;1.00;;;;;;5051634;28;20328;-71
2022/02/10 02:06:00;;;;;;;10.57;4.87;;;7.20;1.00;;;;;;5051115;28;20242;-81
2022/02/10 02:08:31;;;;;;;11.00;4.90;;;7.30;1.00;;;;;;5051612;28;20203;-80
2022/02/10 02:11:00;;;;;;;15.50;5.13;;;7.30;1.00;;;;;;5051875;28;20248;-71
2022/02/10 02:13:27;;;;;;;12.00;6.17;;;7.10;1.00;;;;;;5052011;28;20206;-69
2022/02/10 02:15:56;;;;;;;8.30;5.17;;;7.00;1.00;;;;;;5051723;28;20741;-68
2022/02/10 02:18:23;;;;;;;8.93;5.10;;;6.90;1.00;;;;;;5051043;28;20207;-69
2022/02/10 02:20:52;;;;;;;8.80;5.03;;;7.20;1.00;;;;;;5051333;28;20207;-69
2022/02/10 02:23:22;;;;;;;13.27;6.50;;;7.00;1.00;;;;;;5050651;28;20647;-82
2022/02/10 02:25:54;;;;;;;8.57;6.03;;;7.00;1.00;;;;;;5051360;28;20211;-69
2022/02/10 02:28:22;;;;;;;10.03;5.70;;;7.10;1.00;;;;;;5050936;28;20215;-71
2022/02/10 02:30:53;;;;;;;9.93;5.00;;;6.90;1.00;;;;;;5051171;28;20199;-73
2022/02/10 03:06:29;;;;;;;10.27;5.30;;;6.10;1.00;;;;;;5050247;28;20689;-69
2022/02/10 03:08:59;;;;;;;13.20;5.33;;;6.10;1.00;;;;;;5050989;28;20215;-70
2022/02/10 03:11:28;;;;;;;9.53;4.63;;;6.10;1.00;;;;;;5050444;28;20199;-71
2022/02/10 03:13:59;;;;;;;12.17;5.27;;;6.00;1.00;;;;;;5050896;28;20667;-70
2022/02/10 03:19:32;;;;;;;18.77;5.00;;;6.00;1.00;;;;;;5018197;28;20289;-69
2022/02/10 03:22:18;;;;;;;9.73;5.80;;;6.00;1.00;;;;;;5054359;28;20206;-69
2022/02/10 04:03:32;;;;;;;12.17;5.70;;;5.90;1.00;;;;;;5053596;28;20211;-70
2022/02/10 04:09:12;;;;;;;14.17;5.30;;;5.80;1.00;;;;;;5053782;28;20293;-68
2022/02/10 04:12:00;;;;;;;10.03;5.13;;;5.80;1.00;;;;;;5053899;28;20248;-77
2022/02/10 04:14:31;;;;;;;9.93;4.23;;;5.80;1.00;;;;;;5053903;28;20214;-69
2022/02/10 04:17:20;;;;;;;7.27;3.67;;;5.70;1.00;;;;;;5053760;28;20217;-69
2022/02/10 04:20:09;;;;;;;11.97;5.73;;;5.70;1.00;;;;;;5053561;28;20297;-69
2022/02/10 04:22:46;;;;;;;16.57;4.97;;;5.70;1.00;;;;;;5053597;28;20745;-69
2022/02/10 04:25:35;;;;;;;15.63;4.77;;;5.60;1.00;;;;;;5052831;28;20241;-69
2022/02/10 04:28:17;;;;;;;13.20;4.77;;;5.60;1.00;;;;;;5052406;28;20207;-69
2022/02/10 04:31:18;;;;;;;11.20;4.30;;;5.60;1.00;;;;;;5053507;28;20203;-70
2022/02/10 04:53:44;;;;;;;12.40;5.80;;;5.60;1.00;;;;;;5053376;28;20301;-70
2022/02/10 04:56:25;;;;;;;12.43;4.23;;;5.60;1.00;;;;;;5052440;28;20207;-70
2022/02/10 04:59:10;;;;;;;11.37;4.67;;;5.50;1.00;;;;;;5052763;28;20697;-69
2022/02/10 05:01:53;;;;;;;9.20;4.93;;;5.50;1.00;;;;;;5052670;28;20265;-69
2022/02/10 05:18:21;;;;;;;12.10;8.77;;;5.10;1.00;;;;;;5019438;28;20206;-69
2022/02/10 05:21:05;;;;;;;14.83;6.60;;;5.10;1.00;;;;;;5052487;28;20209;-70
2022/02/10 05:23:56;;;;;;;11.80;7.20;;;5.10;1.00;;;;;;5052560;28;20627;-71
2022/02/10 05:32:16;;;;;;;20.57;10.03;;;5.00;1.00;;;;;;5052000;28;20332;-72
2022/02/10 05:34:48;;;;;;;16.43;9.97;;;5.10;1.00;;;;;;5052208;28;20209;-71
2022/02/10 05:37:17;;;;;;;13.03;9.27;;;5.00;1.00;;;;;;5051724;28;20207;-71
2022/02/10 05:39:48;;;;;;;16.33;11.70;;;4.90;1.00;;;;;;5051323;28;20226;-72
2022/02/10 05:45:09;;;;;;;18.00;11.40;;;4.70;1.00;;;;;;5025922;28;20242;-71
2022/02/10 05:48:07;;;;;;;18.40;12.00;;;4.80;1.00;;;;;;5052047;28;20207;-71
2022/02/10 05:50:59;;;;;;;13.53;11.97;;;4.80;1.00;;;;;;5051956;28;20701;-71
2022/02/10 05:56:16;;;;;;;17.27;10.93;;;4.80;1.00;;;;;;5050956;28;20210;-76
2022/02/10 05:59:14;;;;;;;18.23;12.10;;;4.70;1.00;;;;;;5051510;28;20205;-71
2022/02/10 06:49:37;;;;;;;21.23;16.43;;;4.50;1.00;;;;;;5090272;28;20293;-82
2022/02/10 06:52:11;;;;;;;20.50;14.90;;;4.50;1.00;;;;;;5090432;28;20197;-71
2022/02/10 06:54:53;;;;;;;14.77;12.17;;;4.50;1.00;;;;;;5091292;28;20292;-83
2022/02/10 06:58:05;;;;;;;22.20;13.47;;;4.50;1.00;;;;;;5085557;28;20208;-71
2022/02/10 07:06:24;;;;;;;17.43;10.27;;;4.50;1.00;;;;;;5064893;28;20289;-80
2022/02/10 07:09:13;;;;;;;20.47;11.73;;;4.50;1.00;;;;;;5090939;28;20587;-71
2022/02/10 07:12:09;;;;;;;18.37;11.13;;;4.50;1.00;;;;;;5090779;28;20206;-77
2022/02/10 07:53:55;;;;;;;21.00;10.40;;;9.90;1.00;;;;;;5069167;28;20786;-80
2022/02/10 07:56:46;;;;;;;16.50;9.57;;;9.90;1.00;;;;;;5070458;28;20214;-79
2022/02/10 08:57:46;;;;;;;14.63;9.00;;;9.70;1.00;;;;;;5130002;27;20231;-89
2022/02/10 09:00:38;;;;;;;13.80;8.47;;;10.10;1.00;;;;;;5129751;27;20579;-90
2022/02/10 09:03:21;;;;;;;16.93;8.70;;;11.90;1.00;;;;;;5088860;28;20322;-90
2022/02/10 09:05:59;;;;;;;19.70;7.73;;;12.00;1.00;;;;;;5089258;28;20194;-89
2022/02/10 09:09:00;;;;;;;18.23;8.53;;;11.70;1.00;;;;;;5111650;28;20696;-89
2022/02/10 09:14:41;;;;;;;12.63;7.47;;;11.70;1.00;;;;;;5108777;28;20294;-89
2022/02/10 09:47:52;;;;;;;7.28;3.63;;;14.10;1.00;;;;;;5115599;28;20220;-70
2022/02/10 09:56:35;;;;;;;8.55;3.25;;;14.80;1.00;;;;;;5120510;28;20208;-82
2022/02/10 09:59:13;;;;;;;4.50;2.67;;;15.80;1.00;;;;;;5114557;28;20215;-70
2022/02/10 10:01:59;;;;;;;8.70;3.13;;;16.20;1.00;;;;;;5127614;27;20211;-80
2022/02/10 10:04:33;;;;;;;5.85;2.83;;;16.70;1.00;;;;;;5119459;27;20213;-82
2022/02/10 10:07:16;;;;;;;13.65;4.18;;;16.20;1.00;;;;;;5095750;28;20201;-78
2022/02/10 10:09:52;;;;;;;9.65;3.05;;;17.30;1.00;;;;;;5094146;28;20646;-81
2022/02/10 10:12:49;;;;;;;5.93;2.92;;;18.40;1.00;;;;;;5101082;28;20205;-77
2022/02/10 10:21:11;;;;;;;6.15;2.53;;;19.00;1.00;;;;;;5091373;28;20298;-71
2022/02/10 10:23:54;;;;;;;8.85;3.20;;;18.70;1.00;;;;;;5113633;28;20205;-80
2022/02/10 10:26:52;;;;;;;8.80;3.53;;;18.20;1.00;;;;;;5106671;28;20215;-82
2022/02/10 10:49:44;;;;;;;8.43;2.15;;;13.60;1.00;;;;;;5112265;28;20566;-70
2022/02/10 10:52:25;;;;;;;4.10;2.40;;;13.70;1.00;;;;;;5094179;28;20201;-70
2022/02/10 10:55:05;;;;;;;9.65;2.83;;;13.80;1.00;;;;;;5112805;28;20585;-81
2022/02/10 10:57:36;;;;;;;6.00;2.40;;;13.50;1.00;;;;;;5113294;28;20239;-80
2022/02/10 11:37:08;;;;;;;9.38;2.72;;;14.30;1.00;;;;;;5081962;28;20644;-71
2022/02/10 11:39:52;;;;;;;8.13;2.75;;;14.30;1.00;;;;;;5089365;28;20209;-71
2022/02/10 11:42:43;;;;;;;11.63;3.17;;;14.40;1.00;;;;;;5100045;28;20204;-73
2022/02/10 13:03:13;;;;;;;5.50;2.30;;;16.00;1.00;;;;;;5101481;28;20215;-79
2022/02/10 14:10:10;;;;;;;9.95;2.95;;;16.70;1.00;;;;;;5113874;28;20579;-71
2022/02/10 14:12:52;;;;;;;4.50;2.00;;;16.60;1.00;;;;;;5096703;28;20574;-82
2022/02/10 14:15:30;;;;;;;3.80;2.47;;;16.60;1.00;;;;;;5099979;28;20319;-83
2022/02/10 14:18:08;;;;;;;5.95;2.15;;;16.80;1.00;;;;;;5109667;28;20200;-81
2022/02/10 14:20:57;;;;;;;5.15;2.08;;;16.80;1.00;;;;;;5114433;28;20223;-83
2022/02/10 14:26:25;;;;;;;4.30;1.75;;;16.70;1.00;;;;;;5100288;28;20204;-82
2022/02/10 14:28:53;;;;;;;8.75;2.72;;;16.70;1.00;;;;;;5114092;28;20212;-84
2022/02/10 14:31:20;;;;;;;4.82;2.10;;;16.70;1.00;;;;;;5113602;28;20242;-82
2022/02/10 14:33:49;;;;;;;7.28;2.13;;;16.90;1.00;;;;;;5113813;28;20272;-83
2022/02/10 14:36:21;;;;;;;4.90;2.75;;;17.00;1.00;;;;;;5113093;28;20219;-76
2022/02/10 14:38:56;;;;;;;7.05;1.98;;;17.00;1.00;;;;;;5098853;28;20205;-83
2022/02/10 15:45:57;;;;;;;6.05;1.95;;;16.60;1.00;;;;;;5099318;28;20790;-77
2022/02/10 15:56:22;;;;;;;5.05;2.30;;;16.30;1.00;;;;;;5105965;28;20207;-70
2022/02/10 16:18:13;;;;;;;2.90;1.70;;;15.70;1.00;;;;;;5092612;28;20220;-73
2022/02/10 16:20:47;;;;;;;5.40;2.50;;;15.70;1.00;;;;;;5091251;28;20580;-76
2022/02/10 16:23:18;;;;;;;3.53;2.05;;;15.90;1.00;;;;;;5102068;28;20205;-75
2022/02/10 16:25:49;;;;;;;5.55;2.60;;;15.80;1.00;;;;;;5108700;28;20292;-77
2022/02/10 16:28:26;;;;;;;3.20;1.70;;;15.40;1.00;;;;;;5090790;28;20213;-76
2022/02/10 16:30:53;;;;;;;4.50;1.88;;;15.20;1.00;;;;;;5109020;28;20204;-77
2022/02/10 16:33:20;;;;;;;6.15;1.98;;;15.20;1.00;;;;;;5108062;28;20201;-75
2022/02/10 16:35:48;;;;;;;5.25;1.77;;;15.30;1.00;;;;;;5098597;28;20993;-77
2022/02/10 16:38:16;;;;;;;4.13;2.25;;;15.30;1.00;;;;;;5103016;28;20217;-77
2022/02/10 16:40:43;;;;;;;4.53;2.33;;;15.10;1.00;;;;;;5099781;28;20630;-77
2022/02/10 16:43:11;;;;;;;4.65;2.10;;;14.80;1.00;;;;;;5100331;27;20205;-80
2022/02/10 16:45:38;;;;;;;4.18;2.15;;;14.70;1.00;;;;;;5110717;28;20672;-80
2022/02/10 16:48:07;;;;;;;4.50;2.67;;;14.60;1.00;;;;;;5110223;28;20269;-80
2022/02/10 16:50:34;;;;;;;5.18;2.22;;;14.50;1.00;;;;;;5111160;28;20208;-80
2022/02/10 16:53:03;;;;;;;5.07;1.70;;;14.30;1.00;;;;;;5103630;28;20258;-81
2022/02/10 16:55:42;;;;;;;3.53;2.35;;;14.10;1.00;;;;;;5105205;28;20236;-81
2022/02/10 16:58:19;;;;;;;7.78;1.92;;;14.10;1.00;;;;;;5110470;28;20287;-80
2022/02/10 17:03:45;;;;;;;8.55;3.25;;;13.90;1.00;;;;;;5090916;28;20585;-79
2022/02/10 17:17:31;;;;;;;13.10;2.97;;;13.30;1.00;;;;;;5051432;28;20235;-78
2022/02/10 17:20:24;;;;;;;5.78;3.28;;;13.20;1.00;;;;;;5107021;28;20212;-81
2022/02/10 17:25:37;;;;;;;12.57;3.67;;;12.90;1.00;;;;;;5109288;28;20211;-82
2022/02/10 17:28:06;;;;;;;6.53;3.60;;;12.70;1.00;;;;;;5099766;28;20200;-81
2022/02/10 17:33:25;;;;;;;9.70;4.10;;;12.70;1.00;;;;;;5107553;28;20728;-81
2022/02/10 17:41:41;;;;;;;5.13;3.05;;;12.60;1.00;;;;;;5094476;28;20577;-82
2022/02/10 17:44:19;;;;;;;8.35;4.25;;;12.40;1.00;;;;;;5102941;28;20231;-81
2022/02/10 17:51:25;;;;;;;10.15;3.42;;;12.20;1.00;;;;;;5088148;28;20205;-81
2022/02/10 17:52:35;;;;;;;8.02;4.45;;;12.20;1.00;;;;;;5096660;28;20266;-77
2022/02/10 17:55:02;;;;;;;13.90;7.85;;;12.30;1.00;;;;;;5098069;28;20228;-72
2022/02/10 17:57:29;;;;;;;15.35;8.43;;;12.40;1.00;;;;;;5106637;28;20204;-83
2022/02/10 17:59:57;;;;;;;11.82;7.18;;;12.40;1.00;;;;;;5099549;28;20329;-72
2022/02/10 18:02:24;;;;;;;12.63;6.45;;;12.40;1.00;;;;;;5101604;28;20589;-81
2022/02/10 18:04:51;;;;;;;10.48;5.97;;;12.40;1.00;;;;;;5085033;28;20665;-81
2022/02/10 18:07:18;;;;;;;11.00;6.88;;;12.40;1.00;;;;;;5103818;28;20215;-79
2022/02/10 18:10:10;;;;;;;10.68;7.05;;;12.50;1.00;;;;;;5109562;28;20255;-79
2022/02/10 18:15:24;;;;;;;16.13;7.68;;;12.40;1.00;;;;;;5088241;28;20233;-78
2022/02/10 18:17:57;;;;;;;13.07;7.18;;;12.30;1.00;;;;;;5091856;28;20206;-78
2022/02/10 18:20:31;;;;;;;15.52;6.63;;;12.20;1.00;;;;;;5097392;28;20300;-78
2022/02/10 18:23:05;;;;;;;12.27;6.72;;;12.20;1.00;;;;;;5096881;28;20201;-78
2022/02/10 18:25:47;;;;;;;10.25;6.82;;;12.20;1.00;;;;;;5100217;28;20205;-82
2022/02/10 18:28:33;;;;;;;10.60;7.57;;;12.00;1.00;;;;;;5107243;28;20204;-81
2022/02/10 18:34:20;;;;;;;23.13;12.13;;;12.00;1.00;;;;;;5093431;28;20205;-78
2022/02/10 19:01:53;;;;;;;30.88;16.25;;;12.30;1.00;;;;;;5111714;28;20211;-81
2022/02/10 19:07:17;;;;;;;25.75;16.30;;;12.20;1.00;;;;;;5101408;28;20286;-71
2022/02/10 19:09:46;;;;;;;26.38;17.67;;;12.20;1.00;;;;;;5080918;28;20217;-81
2022/02/10 19:12:17;;;;;;;32.47;17.20;;;12.10;1.00;;;;;;5091710;28;20251;-81
2022/02/10 19:14:52;;;;;;;29.85;17.60;;;12.10;1.00;;;;;;5092306;28;20591;-81
2022/02/10 19:17:19;;;;;;;28.88;16.92;;;12.20;1.00;;;;;;5091948;28;20550;-79
2022/02/10 19:19:47;;;;;;;27.23;17.98;;;12.20;1.00;;;;;;5092886;28;20202;-81
2022/02/10 19:22:15;;;;;;;24.27;15.55;;;12.20;1.00;;;;;;5091986;28;20201;-81
2022/02/10 19:24:42;;;;;;;21.08;14.27;;;12.10;1.00;;;;;;5092244;28;20547;-81
2022/02/10 19:27:09;;;;;;;26.13;15.68;;;12.10;1.00;;;;;;5092318;28;20209;-77
2022/02/10 19:29:38;;;;;;;21.05;15.18;;;12.10;1.00;;;;;;5092363;28;20696;-83
2022/02/10 19:32:06;;;;;;;21.00;14.23;;;12.10;1.00;;;;;;5087897;28;20661;-71
2022/02/10 19:34:35;;;;;;;23.17;15.00;;;12.10;1.00;;;;;;5100226;28;20229;-74
2022/02/10 19:37:04;;;;;;;24.75;15.40;;;12.10;1.00;;;;;;5096282;28;20206;-74
2022/02/10 19:39:31;;;;;;;28.98;15.50;;;12.10;1.00;;;;;;5101205;28;20204;-82
2022/02/10 19:41:58;;;;;;;24.50;15.18;;;12.00;1.00;;;;;;5098784;28;20219;-75
2022/02/10 19:44:26;;;;;;;27.52;16.73;;;12.00;1.00;;;;;;5100804;28;20204;-73
2022/02/10 19:46:57;;;;;;;27.20;16.88;;;11.90;1.00;;;;;;5111805;28;20209;-75
2022/02/10 19:49:25;;;;;;;24.67;16.08;;;11.90;1.00;;;;;;5097760;27;20205;-72
2022/02/10 19:51:52;;;;;;;38.22;21.40;;;11.90;1.00;;;;;;5102107;28;20243;-75
2022/02/10 19:54:25;;;;;;;35.07;21.30;;;11.90;1.00;;;;;;5111093;28;20372;-76
2022/02/10 19:56:54;;;;;;;34.13;22.80;;;12.00;1.00;;;;;;5110903;28;20258;-77
2022/02/10 19:59:24;;;;;;;41.30;22.77;;;11.90;1.00;;;;;;5091483;28;20213;-76
2022/02/10 20:01:52;;;;;;;36.03;24.52;;;12.00;1.00;;;;;;5081337;28;20235;-75
2022/02/10 20:04:20;;;;;;;37.37;22.90;;;11.90;1.00;;;;;;5091034;28;20211;-77
2022/02/10 20:06:48;;;;;;;28.30;18.75;;;11.90;1.00;;;;;;5091835;28;20243;-74
2022/02/10 20:09:16;;;;;;;28.98;20.45;;;11.90;1.00;;;;;;5084618;28;20622;-74
2022/02/10 20:11:47;;;;;;;24.23;16.70;;;11.90;1.00;;;;;;5094888;28;20236;-75
2022/02/10 20:14:14;;;;;;;24.63;16.05;;;11.90;1.00;;;;;;5099703;28;20198;-76
2022/02/10 20:16:41;;;;;;;28.15;16.08;;;11.80;1.00;;;;;;5111756;27;20204;-78
2022/02/10 20:19:09;;;;;;;23.58;15.02;;;11.80;1.00;;;;;;5102609;28;20201;-74
2022/02/10 20:21:36;;;;;;;23.35;14.48;;;11.80;1.00;;;;;;5099304;28;20200;-74
2022/02/10 20:24:04;;;;;;;21.23;12.90;;;11.80;1.00;;;;;;5104435;28;20201;-76
2022/02/10 20:26:31;;;;;;;22.83;14.65;;;11.80;1.00;;;;;;5109340;28;20736;-76
2022/02/10 20:28:59;;;;;;;20.45;13.93;;;11.70;1.00;;;;;;5097552;28;20270;-78
2022/02/10 20:31:29;;;;;;;24.50;14.45;;;11.70;1.00;;;;;;5099535;28;20208;-82
2022/02/10 20:33:56;;;;;;;20.63;14.67;;;11.70;1.00;;;;;;5097911;28;20288;-72
2022/02/10 20:36:23;;;;;;;18.92;12.60;;;11.60;1.00;;;;;;5091023;28;20252;-80
2022/02/10 20:38:55;;;;;;;17.65;14.10;;;11.70;1.00;;;;;;5091328;28;20623;-80
2022/02/10 20:41:24;;;;;;;22.80;15.52;;;11.70;1.00;;;;;;5097466;28;20210;-74
2022/02/10 20:43:55;;;;;;;21.35;15.18;;;11.60;1.00;;;;;;5086396;28;20213;-78
2022/02/10 20:46:26;;;;;;;25.15;16.15;;;11.60;1.00;;;;;;5092331;28;20213;-78
2022/02/10 20:48:53;;;;;;;23.93;14.80;;;11.60;1.00;;;;;;5102614;28;20213;-81
2022/02/10 20:51:20;;;;;;;21.58;15.60;;;11.60;1.00;;;;;;5103342;28;20209;-81
2022/02/10 20:53:49;;;;;;;29.90;16.98;;;11.60;1.00;;;;;;5111444;28;20212;-83
2022/02/10 20:56:19;;;;;;;35.00;16.45;;;11.50;1.00;;;;;;5097044;28;20287;-78
2022/02/10 20:58:52;;;;;;;27.07;18.07;;;11.50;1.00;;;;;;5093124;28;20296;-83
2022/02/10 21:01:19;;;;;;;27.95;18.83;;;11.50;1.00;;;;;;5090763;28;20301;-81
2022/02/10 21:03:48;;;;;;;31.33;21.93;;;11.40;1.00;;;;;;5090683;28;20255;-77
2022/02/10 21:06:28;;;;;;;26.33;18.90;;;11.30;1.00;;;;;;5091085;28;20603;-81
2022/02/10 21:09:00;;;;;;;30.87;20.90;;;11.30;1.00;;;;;;5091324;28;20201;-81
2022/02/10 21:11:28;;;;;;;33.50;22.57;;;11.20;1.00;;;;;;5091194;28;20308;-79
2022/02/10 21:13:56;;;;;;;44.47;30.02;;;11.20;1.00;;;;;;5090673;28;20274;-81
2022/02/10 21:16:24;;;;;;;39.57;26.67;;;11.20;1.00;;;;;;5090696;28;20233;-79
2022/02/10 21:18:53;;;;;;;36.47;27.60;;;11.10;1.00;;;;;;5092354;28;20202;-75
2022/02/10 21:21:20;;;;;;;31.40;25.90;;;11.10;1.00;;;;;;5101614;28;20220;-78
2022/02/10 21:23:53;;;;;;;38.37;25.13;;;11.10;1.00;;;;;;5107875;28;20196;-73
2022/02/10 21:26:27;;;;;;;32.57;24.37;;;11.00;1.00;;;;;;5096363;28;20582;-71
2022/02/10 21:28:58;;;;;;;30.23;23.93;;;10.90;1.00;;;;;;5094920;28;20233;-77
2022/02/10 21:31:25;;;;;;;29.87;22.23;;;10.80;1.00;;;;;;5085900;28;20680;-72
2022/02/10 21:34:04;;;;;;;28.87;20.70;;;10.80;1.00;;;;;;5078771;28;20560;-78
2022/02/10 21:36:54;;;;;;;33.63;21.90;;;10.80;1.00;;;;;;5089992;28;20218;-81
2022/02/10 21:39:32;;;;;;;26.50;19.33;;;10.70;1.00;;;;;;5086524;28;20209;-82
2022/02/10 21:47:50;;;;;;;28.27;18.60;;;10.60;1.00;;;;;;5090516;28;20208;-76
2022/02/10 21:54:07;;;;;;;31.63;19.73;;;10.50;1.00;;;;;;5089064;28;20208;-73
2022/02/10 22:10:04;;;;;;;27.30;18.00;;;10.30;1.00;;;;;;5094334;28;20288;-76
2022/02/10 22:20:54;;;;;;;26.37;19.90;;;10.20;1.00;;;;;;5093909;28;20253;-78
2022/02/10 22:23:25;;;;;;;24.83;18.37;;;10.10;1.00;;;;;;5093180;28;20234;-77
2022/02/10 22:25:59;;;;;;;25.50;18.80;;;10.00;1.00;;;;;;5093491;28;20213;-78
2022/02/10 22:28:32;;;;;;;31.40;18.87;;;9.90;1.00;;;;;;5093687;28;20262;-78
2022/02/10 22:33:55;;;;;;;32.13;19.50;;;9.90;1.00;;;;;;5089824;28;20233;-77
2022/02/10 22:36:23;;;;;;;25.30;18.80;;;9.90;1.00;;;;;;5093176;28;20320;-76
2022/02/10 22:38:54;;;;;;;23.83;18.37;;;9.90;1.00;;;;;;5093410;28;20209;-77
2022/02/10 22:41:21;;;;;;;32.57;21.37;;;9.80;1.00;;;;;;5092862;28;20214;-77
2022/02/10 22:43:51;;;;;;;36.27;21.23;;;9.80;1.00;;;;;;5093420;28;20205;-77
2022/02/10 22:46:19;;;;;;;37.07;22.60;;;9.80;1.00;;;;;;5092783;28;20609;-77
2022/02/10 22:48:48;;;;;;;33.97;21.70;;;9.70;1.00;;;;;;5093381;28;20210;-77
2022/02/10 22:51:17;;;;;;;32.23;21.93;;;9.60;1.00;;;;;;5092866;28;20205;-78
2022/02/10 22:53:45;;;;;;;31.43;21.97;;;9.50;1.00;;;;;;5093271;28;20213;-79
2022/02/10 22:56:15;;;;;;;33.07;22.83;;;9.50;1.00;;;;;;5092603;28;20232;-78
2022/02/10 22:58:43;;;;;;;30.40;20.80;;;9.50;1.00;;;;;;5093013;28;20267;-78
2022/02/10 23:01:12;;;;;;;35.43;20.67;;;9.50;1.00;;;;;;5092625;28;20266;-78
2022/02/10 23:03:41;;;;;;;30.33;19.03;;;9.50;1.00;;;;;;5092814;28;20629;-78
2022/02/10 23:06:10;;;;;;;26.07;20.13;;;9.50;1.00;;;;;;5092782;28;20213;-78
2022/02/10 23:08:38;;;;;;;28.30;20.77;;;9.60;1.00;;;;;;5092940;28;20205;-78
2022/02/10 23:11:06;;;;;;;28.73;20.50;;;9.60;1.00;;;;;;5092252;28;20217;-79
2022/02/10 23:13:35;;;;;;;31.33;19.17;;;9.70;1.00;;;;;;5092607;28;20262;-78
2022/02/10 23:16:04;;;;;;;30.23;21.13;;;9.70;1.00;;;;;;5092306;28;20240;-75
2022/02/10 23:18:33;;;;;;;27.07;20.97;;;9.50;1.00;;;;;;5092756;28;20201;-74
2022/02/10 23:21:03;;;;;;;28.97;19.83;;;9.50;1.00;;;;;;5092548;28;20258;-73
2022/02/10 23:23:31;;;;;;;28.30;19.87;;;9.40;1.00;;;;;;5092166;28;20205;-74
2022/02/10 23:26:00;;;;;;;22.17;17.17;;;9.40;1.00;;;;;;5092547;28;20259;-75
2022/02/10 23:28:30;;;;;;;32.97;18.87;;;9.40;1.00;;;;;;5092322;28;20204;-75
2022/02/10 23:31:00;;;;;;;24.53;18.20;;;9.40;1.00;;;;;;5092893;28;20201;-75
2022/02/10 23:33:30;;;;;;;26.83;17.83;;;9.40;1.00;;;;;;5092315;28;20600;-75
2022/02/10 23:38:53;;;;;;;23.23;17.10;;;9.60;1.00;;;;;;5092027;28;20217;-75
2022/02/10 23:44:13;;;;;;;25.70;18.70;;;9.80;1.00;;;;;;5074081;28;20680;-75
2022/02/10 23:46:43;;;;;;;21.20;16.47;;;9.70;1.00;;;;;;5092060;28;20353;-75
2022/02/10 23:49:13;;;;;;;22.27;16.57;;;9.60;1.00;;;;;;5091676;28;20209;-75
2022/02/10 23:51:47;;;;;;;29.17;18.67;;;9.40;1.00;;;;;;5091889;28;20644;-78
2022/02/10 23:54:14;;;;;;;25.63;17.50;;;9.30;1.00;;;;;;5091327;28;20220;-76
2022/02/10 23:56:46;;;;;;;25.37;16.63;;;9.30;1.00;;;;;;5091696;28;20634;-77
2022/02/10 23:59:20;;;;;;;25.00;16.93;;;9.20;1.00;;;;;;5091417;28;20206;-77
